Time;durP1;ratioP1;P1;durP2;ratioP2;P2;SDS_P1;SDS_P2;PMS_P1;PMS_P2;Temp;Humidity;BMP_temperature;BMP_pressure;BME280_temperature;BME280_humidity;BME280_pressure;Samples;Min_cycle;Max_cycle;Signal;HPM_P1;HPM_P2
2022/08/31 00:05:22;;;;;;;6.30;3.42;;;17.40;99.90;;;-144.05;53.33;125687.94;4902536;29;20155;-87
2022/08/31 00:07:51;;;;;;;7.15;3.20;;;17.40;99.90;;;-144.05;53.71;125687.94;4900913;29;20036;-88
2022/08/31 00:10:19;;;;;;;6.70;3.22;;;17.40;99.90;;;-144.05;54.38;125687.94;4900237;29;20036;-87
2022/08/31 00:12:51;;;;;;;4.80;3.10;;;17.40;99.90;;;-144.05;54.28;125687.94;4900513;29;20028;-88
2022/08/31 00:15:22;;;;;;;4.78;2.80;;;17.40;99.90;;;-144.05;54.56;125687.94;4918416;29;20024;-85
2022/08/31 00:17:51;;;;;;;7.97;3.25;;;17.40;99.90;;;-144.05;55.02;125687.94;4917624;29;20519;-87
2022/08/31 00:20:21;;;;;;;5.57;3.00;;;17.40;99.90;;;-144.05;55.16;125687.94;4917641;29;20035;-88
2022/08/31 00:22:46;;;;;;;8.20;2.95;;;17.40;99.90;;;-144.05;55.17;125687.94;4917912;29;20123;-89
2022/08/31 00:25:13;;;;;;;7.57;2.90;;;17.40;99.90;;;-144.05;54.95;125687.94;4918972;29;20138;-86
2022/08/31 00:27:39;;;;;;;7.00;2.70;;;17.30;99.90;;;-144.05;55.48;125687.94;4919100;29;20032;-88
2022/08/31 00:30:07;;;;;;;6.65;2.88;;;17.40;99.90;;;-144.05;55.46;125687.94;4919405;29;20084;-87
2022/08/31 00:32:34;;;;;;;7.55;2.83;;;17.30;99.90;;;-144.05;55.87;125687.94;4918760;29;20029;-88
2022/08/31 00:35:01;;;;;;;5.57;2.50;;;17.30;99.90;;;-144.05;56.35;125687.94;4918569;29;20503;-86
2022/08/31 00:37:27;;;;;;;5.88;2.50;;;17.20;99.90;;;-144.05;56.19;125687.94;4921280;29;20032;-85
2022/08/31 00:39:54;;;;;;;5.93;2.00;;;17.30;99.90;;;-144.05;56.51;125687.94;4918134;29;20054;-88
2022/08/31 00:42:29;;;;;;;3.60;2.13;;;17.30;99.90;;;-144.05;56.50;125687.94;4934810;29;20028;-85
2022/08/31 00:44:58;;;;;;;3.60;2.17;;;17.20;99.90;;;-144.05;56.81;125687.94;4918516;29;20064;-87
2022/08/31 00:47:24;;;;;;;8.07;2.30;;;17.30;99.90;;;-144.05;56.76;125687.94;4918865;29;20043;-84
2022/08/31 00:49:51;;;;;;;2.97;1.90;;;17.30;99.90;;;-144.05;56.72;125687.94;4918707;29;20084;-84
2022/08/31 00:52:29;;;;;;;5.20;2.05;;;17.20;99.90;;;-144.05;56.93;125687.94;4917744;29;20393;-86
2022/08/31 00:55:34;;;;;;;4.47;2.50;;;17.20;99.90;;;-144.05;57.25;125687.94;4917065;29;20032;-88
2022/08/31 00:58:14;;;;;;;3.13;1.90;;;17.20;99.90;;;-144.05;57.66;125687.94;4917557;29;20028;-88
2022/08/31 01:00:44;;;;;;;3.58;2.17;;;17.10;99.90;;;-144.05;57.71;125687.94;4917838;29;20387;-87
2022/08/31 01:03:11;;;;;;;4.18;1.73;;;17.20;99.90;;;-144.05;57.47;125687.94;4932848;29;20119;-85
2022/08/31 01:05:39;;;;;;;3.45;1.65;;;17.20;99.90;;;-144.05;57.45;125687.94;4927672;29;20031;-82
2022/08/31 01:08:07;;;;;;;3.95;1.85;;;17.20;99.90;;;-144.05;57.66;125687.94;4936258;29;20036;-88
2022/08/31 01:10:42;;;;;;;3.03;1.33;;;17.10;99.90;;;-144.05;57.73;125687.94;4918097;29;20095;-86
2022/08/31 01:13:12;;;;;;;4.47;1.48;;;17.10;99.90;;;-144.05;57.80;125687.94;4915905;29;20032;-86
2022/08/31 01:15:53;;;;;;;4.13;1.10;;;17.10;99.90;;;-144.05;58.29;125687.94;4898591;29;20044;-85
2022/08/31 01:18:23;;;;;;;4.80;1.55;;;17.00;99.90;;;-144.05;58.54;125687.94;4898096;29;20184;-86
2022/08/31 01:21:21;;;;;;;3.00;1.40;;;17.00;99.90;;;-144.05;58.65;125687.94;4897798;29;20062;-86
2022/08/31 01:23:48;;;;;;;3.45;1.63;;;17.00;99.90;;;-144.05;58.73;125687.94;4899521;29;20182;-88
2022/08/31 01:26:23;;;;;;;4.40;1.88;;;16.90;99.90;;;-144.05;58.65;125687.94;4900060;29;20032;-88
2022/08/31 01:28:56;;;;;;;5.03;1.98;;;16.90;99.90;;;-144.05;58.65;125687.94;4901300;29;20081;-89
2022/08/31 01:31:31;;;;;;;6.22;2.00;;;17.00;99.90;;;-144.05;58.68;125687.94;4899631;29;20121;-85
2022/08/31 01:33:57;;;;;;;3.92;2.20;;;17.00;99.90;;;-144.05;58.53;125687.94;4915490;29;20182;-88
2022/08/31 01:36:25;;;;;;;4.72;2.20;;;17.00;99.90;;;-144.05;58.26;125687.94;4899450;29;20048;-87
2022/08/31 01:38:54;;;;;;;5.13;2.38;;;17.10;99.90;;;-144.05;58.33;125687.94;4899582;29;20164;-88
2022/08/31 01:41:23;;;;;;;3.75;1.95;;;17.00;99.90;;;-144.05;58.71;125687.94;4899055;29;20040;-87
2022/08/31 01:43:51;;;;;;;3.35;2.05;;;17.00;99.90;;;-144.05;58.59;125687.94;4906458;29;20028;-89
2022/08/31 01:46:18;;;;;;;4.20;2.00;;;17.10;99.90;;;-144.05;58.68;125687.94;4904018;29;20032;-86
2022/08/31 01:48:47;;;;;;;3.30;2.33;;;17.10;99.90;;;-144.05;58.89;125687.94;4899571;29;20037;-88
2022/08/31 01:51:19;;;;;;;6.45;1.95;;;17.00;99.90;;;-144.05;58.82;125687.94;4899258;29;20172;-85
2022/08/31 01:53:53;;;;;;;3.83;1.88;;;17.00;99.90;;;-144.05;58.86;125687.94;4900201;29;20033;-87
2022/08/31 01:56:35;;;;;;;4.95;1.83;;;17.00;99.90;;;-144.05;58.91;125687.94;4899932;29;20081;-86
2022/08/31 01:59:07;;;;;;;5.22;2.10;;;17.00;99.90;;;-144.05;59.14;125687.94;4915498;29;20039;-86
2022/08/31 02:01:51;;;;;;;4.25;1.70;;;17.00;99.90;;;-144.05;58.80;125687.94;4900161;29;20100;-88
2022/08/31 02:04:22;;;;;;;4.57;2.42;;;17.00;99.90;;;-144.05;59.11;125687.94;4915884;29;20043;-86
2022/08/31 02:07:00;;;;;;;6.15;2.28;;;17.00;99.90;;;-144.05;58.94;125687.94;4900567;29;20101;-86
2022/08/31 02:09:28;;;;;;;6.18;2.20;;;16.90;99.90;;;-144.05;58.97;125687.94;4899486;29;20060;-87
2022/08/31 02:11:55;;;;;;;4.97;1.80;;;16.90;99.90;;;-144.05;59.00;125687.94;4898823;29;20051;-87
2022/08/31 02:14:24;;;;;;;3.30;2.10;;;16.90;99.90;;;-144.05;59.19;125687.94;4909223;29;20029;-87
2022/08/31 02:16:53;;;;;;;3.53;2.38;;;16.90;99.90;;;-144.05;59.40;125687.94;4917296;29;20258;-85
2022/08/31 02:19:19;;;;;;;5.40;2.47;;;16.90;99.90;;;-144.05;59.49;125687.94;4918011;29;20032;-87
2022/08/31 02:21:45;;;;;;;5.35;2.10;;;16.80;99.90;;;-144.05;59.60;125687.94;4920444;29;20043;-86
2022/08/31 02:24:12;;;;;;;4.93;2.05;;;16.80;99.90;;;-144.05;59.64;125687.94;4921658;29;20502;-86
2022/08/31 02:26:51;;;;;;;7.25;2.42;;;16.80;99.90;;;-144.05;59.67;125687.94;4920738;29;20060;-87
2022/08/31 02:29:28;;;;;;;3.03;1.90;;;16.70;99.90;;;-144.05;59.94;125687.94;4922608;29;20469;-87
2022/08/31 02:31:55;;;;;;;4.30;1.48;;;16.70;99.90;;;-144.05;59.85;125687.94;4921359;29;20036;-84
2022/08/31 02:34:23;;;;;;;5.00;2.03;;;16.80;99.90;;;-144.05;59.94;125687.94;4922792;29;20028;-86
2022/08/31 02:36:49;;;;;;;4.00;2.28;;;16.80;99.90;;;-144.05;59.76;125687.94;4920998;29;20032;-90
2022/08/31 02:39:15;;;;;;;6.20;2.33;;;16.80;99.90;;;-144.05;59.55;125687.94;4920962;29;20047;-87
2022/08/31 02:41:41;;;;;;;3.47;2.22;;;16.80;99.90;;;-144.05;59.41;125687.94;4920940;29;20028;-87
2022/08/31 02:44:17;;;;;;;4.50;1.63;;;16.90;99.90;;;-144.05;59.48;125687.94;4921720;29;20056;-89
2022/08/31 02:46:43;;;;;;;3.03;1.65;;;16.90;99.90;;;-144.05;59.39;125687.94;4921259;29;20411;-88
2022/08/31 02:49:09;;;;;;;2.75;1.42;;;16.90;99.90;;;-144.05;59.34;125687.94;4921911;29;20036;-90
2022/08/31 02:51:41;;;;;;;1.77;1.17;;;16.90;99.90;;;-144.05;59.21;125687.94;4922744;29;20067;-91
2022/08/31 02:54:19;;;;;;;1.95;1.13;;;16.90;99.90;;;-144.05;59.18;125687.94;4923134;29;20338;-88
2022/08/31 02:57:02;;;;;;;2.78;1.25;;;17.00;99.90;;;-144.05;59.47;125687.94;4921296;29;20032;-87
2022/08/31 02:59:28;;;;;;;2.03;1.35;;;16.90;99.90;;;-144.05;59.46;125687.94;4920589;29;20035;-85
2022/08/31 03:01:54;;;;;;;1.73;1.20;;;16.90;99.90;;;-144.05;59.40;125687.94;4919881;29;20036;-87
2022/08/31 03:04:21;;;;;;;1.98;1.10;;;16.90;99.90;;;-144.05;59.36;125687.94;4919958;29;20393;-87
2022/08/31 03:06:58;;;;;;;2.67;1.48;;;16.80;99.90;;;-144.05;59.38;125687.94;4920000;29;20476;-86
2022/08/31 03:09:33;;;;;;;4.00;1.17;;;16.80;99.90;;;-144.05;59.82;125687.94;4938427;29;20130;-82
2022/08/31 03:11:59;;;;;;;2.70;1.05;;;16.80;99.90;;;-144.05;59.45;125687.94;4931830;29;20455;-85
2022/08/31 03:14:30;;;;;;;6.45;1.10;;;16.80;99.90;;;-144.05;59.60;125687.94;4909374;29;20044;-86
2022/08/31 03:16:56;;;;;;;4.97;1.05;;;16.80;99.90;;;-144.05;59.54;125687.94;4901882;29;20069;-88
2022/08/31 03:19:22;;;;;;;1.63;0.82;;;16.80;99.90;;;-144.05;59.57;125687.94;4901734;29;20036;-85
2022/08/31 03:21:57;;;;;;;4.75;1.02;;;16.70;99.90;;;-144.05;59.87;125687.94;4917514;29;20024;-88
2022/08/31 03:24:24;;;;;;;3.60;0.97;;;16.70;99.90;;;-144.05;59.97;125687.94;4902444;29;20080;-86
2022/08/31 03:26:50;;;;;;;4.70;1.10;;;16.70;99.90;;;-144.05;60.02;125687.94;4902547;29;20508;-89
2022/08/31 03:29:18;;;;;;;1.55;1.02;;;16.70;99.90;;;-144.05;60.32;125687.94;4917595;29;20029;-87
2022/08/31 03:31:52;;;;;;;1.88;1.38;;;16.70;99.90;;;-144.05;60.36;125687.94;4916872;29;20515;-89
2022/08/31 03:34:26;;;;;;;3.05;1.42;;;16.60;99.90;;;-144.05;60.26;125687.94;4903491;29;20033;-86
2022/08/31 03:36:55;;;;;;;2.17;1.30;;;16.60;99.90;;;-144.05;60.42;125687.94;4901230;29;20039;-86
2022/08/31 03:39:21;;;;;;;2.17;1.40;;;16.60;99.90;;;-144.05;60.52;125687.94;4916418;29;20032;-89
2022/08/31 03:41:56;;;;;;;2.55;1.25;;;16.60;99.90;;;-144.05;60.44;125687.94;4901225;29;20040;-89
2022/08/31 03:44:22;;;;;;;3.53;1.70;;;16.50;99.90;;;-144.05;60.68;125687.94;4917161;29;20036;-87
2022/08/31 03:46:50;;;;;;;4.80;2.28;;;16.50;99.90;;;-144.05;60.70;125687.94;4901324;29;20128;-88
2022/08/31 03:49:17;;;;;;;4.53;1.90;;;16.50;99.90;;;-144.05;60.46;125687.94;4900808;29;20088;-87
2022/08/31 03:51:44;;;;;;;3.08;1.55;;;16.50;99.90;;;-144.05;60.52;125687.94;4901262;29;20036;-86
2022/08/31 03:54:11;;;;;;;2.67;1.45;;;16.60;99.90;;;-144.05;60.15;125687.94;4916303;29;20044;-88
2022/08/31 03:56:39;;;;;;;5.75;1.73;;;16.50;99.90;;;-144.05;60.11;125687.94;4900690;29;20059;-85
2022/08/31 03:59:06;;;;;;;5.53;1.73;;;16.60;99.90;;;-144.05;60.31;125687.94;4900910;29;20043;-87
2022/08/31 04:01:35;;;;;;;3.83;2.10;;;16.50;99.90;;;-144.05;60.34;125687.94;4902537;29;20032;-86
2022/08/31 04:04:05;;;;;;;2.90;1.90;;;16.50;99.90;;;-144.05;60.23;125687.94;4901146;29;20036;-85
2022/08/31 04:06:32;;;;;;;2.50;1.63;;;16.50;99.90;;;-144.05;60.00;125687.94;4901168;29;20035;-88
2022/08/31 04:09:01;;;;;;;3.15;1.67;;;16.60;99.90;;;-144.05;60.20;125687.94;4900383;29;20056;-87
2022/08/31 04:11:38;;;;;;;5.10;2.05;;;16.50;99.90;;;-144.05;60.24;125687.94;4901007;29;20029;-87
2022/08/31 04:14:14;;;;;;;3.78;1.65;;;16.50;99.90;;;-144.05;60.40;125687.94;4911060;29;20056;-85
2022/08/31 04:16:59;;;;;;;3.20;1.80;;;16.50;99.90;;;-144.05;60.37;125687.94;4935945;29;20028;-87
2022/08/31 04:19:54;;;;;;;6.07;2.13;;;16.50;99.90;;;-144.05;60.60;125687.94;4918651;29;20036;-88
2022/08/31 04:22:23;;;;;;;3.97;1.88;;;16.40;99.90;;;-144.05;60.47;125687.94;4918863;29;20753;-87
2022/08/31 04:24:58;;;;;;;3.08;1.73;;;16.50;99.90;;;-144.05;60.53;125687.94;4935015;29;20130;-88
2022/08/31 04:27:24;;;;;;;4.00;1.73;;;16.40;99.90;;;-144.05;60.40;125687.94;4920613;29;20032;-86
2022/08/31 04:29:50;;;;;;;2.17;1.63;;;16.40;99.90;;;-144.05;61.24;125687.94;4956984;23;20107;-88
2022/08/31 04:32:16;;;;;;;5.22;2.00;;;16.40;99.90;;;-144.05;60.83;125687.94;4939298;29;20059;-89
2022/08/31 04:34:42;;;;;;;4.47;2.30;;;16.30;99.90;;;-144.05;60.87;125687.94;4940228;29;20551;-89
2022/08/31 04:37:09;;;;;;;3.88;2.15;;;16.30;99.90;;;-144.05;60.91;125687.94;4939988;29;20047;-87
2022/08/31 04:39:35;;;;;;;5.95;2.40;;;16.40;99.90;;;-144.05;60.97;125687.94;4937155;29;20032;-89
2022/08/31 04:42:01;;;;;;;4.82;2.10;;;16.30;99.90;;;-144.05;60.50;125687.94;4920591;29;20047;-90
2022/08/31 04:44:27;;;;;;;3.60;1.90;;;16.40;99.90;;;-144.05;60.65;125687.94;4920347;29;20391;-90
2022/08/31 04:46:54;;;;;;;6.55;2.22;;;16.40;99.90;;;-144.05;61.09;125687.94;4919561;29;20066;-87
2022/08/31 04:49:19;;;;;;;4.30;1.90;;;16.30;99.90;;;-144.05;60.86;125687.94;4920365;29;20071;-90
2022/08/31 04:51:46;;;;;;;4.10;1.80;;;16.30;99.90;;;-144.05;60.79;125687.94;4921298;29;20404;-89
2022/08/31 04:54:13;;;;;;;5.43;2.45;;;16.30;99.90;;;-144.05;60.89;125687.94;4921024;29;20173;-89
2022/08/31 04:56:43;;;;;;;5.50;2.58;;;16.30;99.90;;;-144.05;60.75;125687.94;4921446;29;20028;-89
2022/08/31 04:59:15;;;;;;;4.80;1.50;;;16.20;99.90;;;-144.05;61.01;125687.94;4921164;29;20480;-87
2022/08/31 05:01:44;;;;;;;4.10;1.60;;;16.20;99.90;;;-144.05;61.03;125687.94;4922100;29;20039;-89
2022/08/31 05:04:14;;;;;;;3.50;1.30;;;16.20;99.90;;;-144.05;60.74;125687.94;4921701;29;20054;-89
2022/08/31 05:06:45;;;;;;;3.00;1.50;;;16.10;99.90;;;-144.05;61.05;125687.94;4922339;29;20057;-88
2022/08/31 05:09:22;;;;;;;3.35;1.73;;;16.10;99.90;;;-144.05;61.18;125687.94;4920846;29;20517;-88
2022/08/31 05:11:53;;;;;;;6.43;1.40;;;16.00;99.90;;;-144.05;61.03;125687.94;4922588;29;20399;-88
2022/08/31 05:14:20;;;;;;;5.55;1.90;;;16.00;99.90;;;-144.05;61.24;125687.94;4921532;29;20123;-89
2022/08/31 05:16:47;;;;;;;7.38;1.90;;;16.00;99.90;;;-144.05;60.84;125687.94;4938217;29;20103;-87
2022/08/31 05:19:14;;;;;;;9.23;2.15;;;16.00;99.90;;;-144.05;60.91;125687.94;4937393;29;20455;-86
2022/08/31 05:21:43;;;;;;;3.97;1.70;;;16.00;99.90;;;-144.05;60.99;125687.94;4922434;29;20059;-88
2022/08/31 05:24:20;;;;;;;7.65;1.80;;;16.00;99.90;;;-144.05;61.12;125687.94;4936726;29;20124;-88
2022/08/31 05:26:52;;;;;;;6.82;1.95;;;15.90;99.90;;;-144.05;61.00;125687.94;4941106;29;20043;-87
2022/08/31 05:29:24;;;;;;;4.35;1.95;;;15.90;99.90;;;-144.05;61.22;125687.94;4931110;28;20048;-87
2022/08/31 05:31:51;;;;;;;4.55;2.00;;;15.90;99.90;;;-144.05;60.99;125687.94;4922671;29;20043;-89
2022/08/31 05:34:19;;;;;;;7.93;1.88;;;15.90;99.90;;;-144.05;61.16;125687.94;4936943;29;20036;-89
2022/08/31 05:36:52;;;;;;;9.18;2.13;;;15.90;99.90;;;-144.05;61.08;125687.94;4937229;29;20345;-91
2022/08/31 05:39:19;;;;;;;3.72;2.10;;;15.90;99.90;;;-144.05;60.95;125687.94;4936966;29;20428;-88
2022/08/31 05:41:47;;;;;;;7.15;1.90;;;16.00;99.90;;;-144.05;60.97;125687.94;4920919;29;20051;-87
2022/08/31 05:44:13;;;;;;;7.68;2.40;;;16.00;99.90;;;-144.05;60.79;125687.94;4921022;29;20036;-88
2022/08/31 05:46:40;;;;;;;7.68;2.35;;;16.00;99.90;;;-144.05;60.55;125687.94;4936654;29;20081;-89
2022/08/31 05:49:08;;;;;;;5.00;2.22;;;16.00;99.90;;;-144.05;60.44;125687.94;4936897;29;20040;-88
2022/08/31 05:51:34;;;;;;;6.43;2.15;;;16.00;99.90;;;-144.05;60.30;125687.94;4924025;29;20028;-87
2022/08/31 05:54:02;;;;;;;3.80;2.03;;;16.10;99.90;;;-144.05;60.14;125687.94;4938788;29;20032;-88
2022/08/31 05:56:28;;;;;;;4.38;2.42;;;16.10;99.90;;;-144.05;59.86;125687.94;4942724;29;20035;-90
2022/08/31 05:58:55;;;;;;;2.80;1.98;;;16.10;99.90;;;-144.05;59.90;125687.94;4926862;29;20028;-89
2022/08/31 06:01:38;;;;;;;6.75;2.30;;;16.10;99.90;;;-144.05;59.87;125687.94;4943776;29;20131;-89
2022/08/31 06:04:05;;;;;;;4.80;1.98;;;16.10;99.90;;;-144.05;59.78;125687.94;4932026;29;20460;-89
2022/08/31 06:06:32;;;;;;;3.55;1.65;;;16.20;99.90;;;-144.05;59.97;125687.94;4943364;29;20032;-90
2022/08/31 06:09:00;;;;;;;5.07;1.90;;;16.20;99.90;;;-144.05;59.57;125687.94;4926840;29;20103;-88
2022/08/31 06:11:30;;;;;;;3.55;1.80;;;16.20;99.90;;;-144.05;59.46;125687.94;4943794;29;20043;-86
2022/08/31 06:14:00;;;;;;;4.13;1.63;;;16.30;99.90;;;-144.05;59.31;125687.94;4927148;29;20055;-88
2022/08/31 06:16:29;;;;;;;5.85;2.05;;;16.40;99.90;;;-144.05;59.12;125687.94;4941436;29;20568;-86
2022/08/31 06:19:02;;;;;;;6.20;2.05;;;16.40;99.90;;;-144.05;59.17;125687.94;4941596;29;20032;-87
2022/08/31 06:21:34;;;;;;;5.50;2.13;;;16.40;99.90;;;-144.05;59.28;125687.94;4943709;29;20115;-89
2022/08/31 06:24:04;;;;;;;3.10;1.88;;;16.50;99.90;;;-144.05;58.99;125687.94;4944390;29;20040;-85
2022/08/31 06:26:34;;;;;;;4.00;2.28;;;16.50;99.90;;;-144.05;58.33;125687.94;4928458;29;20032;-88
2022/08/31 06:29:08;;;;;;;8.13;2.10;;;16.70;99.90;;;-144.05;57.81;125687.94;4944338;29;20518;-87
2022/08/31 06:31:46;;;;;;;4.47;2.22;;;16.80;99.90;;;-144.05;57.58;125687.94;4944424;29;20028;-89
2022/08/31 06:34:16;;;;;;;5.28;2.25;;;17.00;99.90;;;-144.05;56.76;125687.94;4945294;29;20028;-86
2022/08/31 06:36:43;;;;;;;4.43;2.00;;;17.20;99.90;;;-144.05;56.21;125687.94;4944994;29;20104;-87
2022/08/31 06:39:11;;;;;;;6.15;2.10;;;17.50;99.90;;;-144.05;55.70;125687.94;4927148;29;20036;-89
2022/08/31 06:41:40;;;;;;;4.32;2.13;;;17.60;99.90;;;-144.05;55.26;125687.94;4928674;29;20032;-90
2022/08/31 06:44:12;;;;;;;7.50;1.92;;;17.70;99.90;;;-144.05;55.29;125687.94;4944100;29;20099;-87
2022/08/31 06:46:40;;;;;;;5.50;2.15;;;17.60;99.90;;;-144.05;55.33;125687.94;4945701;29;20040;-88
2022/08/31 06:49:08;;;;;;;4.25;1.83;;;17.70;99.90;;;-144.05;55.41;125687.94;4928754;29;20037;-86
2022/08/31 06:51:36;;;;;;;3.95;2.13;;;17.80;99.90;;;-144.05;54.94;125687.94;4930760;29;20035;-87
2022/08/31 06:54:10;;;;;;;5.90;2.13;;;17.80;99.90;;;-144.05;55.21;125687.94;4945403;29;20039;-89
2022/08/31 06:56:38;;;;;;;5.65;1.85;;;17.80;99.90;;;-144.05;55.28;125687.94;4945395;29;20059;-88
2022/08/31 06:59:08;;;;;;;4.68;1.70;;;17.80;99.90;;;-144.05;55.16;125687.94;4943588;29;20523;-88
2022/08/31 07:01:35;;;;;;;5.75;2.40;;;17.80;99.90;;;-144.05;55.55;125687.94;4943187;29;20059;-89
2022/08/31 07:04:07;;;;;;;4.78;2.25;;;17.70;99.90;;;-144.05;56.16;125687.94;4943452;29;20038;-89
2022/08/31 07:06:43;;;;;;;3.88;1.90;;;17.60;99.90;;;-144.05;56.25;125687.94;4927277;29;20032;-88
2022/08/31 07:09:16;;;;;;;5.95;2.10;;;17.60;99.90;;;-144.05;56.21;125687.94;4927930;29;20484;-89
2022/08/31 07:11:47;;;;;;;4.95;2.22;;;17.60;99.90;;;-144.05;56.50;125687.94;4927867;29;20051;-88
2022/08/31 07:14:25;;;;;;;3.63;2.55;;;17.50;99.90;;;-144.05;56.97;125687.94;4947004;29;20042;-86
2022/08/31 07:16:56;;;;;;;5.53;2.20;;;17.40;99.90;;;-144.05;56.74;125687.94;4930846;29;20054;-88
2022/08/31 07:19:24;;;;;;;4.38;2.08;;;17.40;99.90;;;-144.05;57.02;125687.94;4933549;29;20020;-89
2022/08/31 07:21:58;;;;;;;4.63;2.35;;;17.40;99.90;;;-144.05;57.09;125687.94;4952601;28;20091;-88
2022/08/31 07:24:32;;;;;;;5.88;2.03;;;17.40;99.90;;;-144.05;56.97;125687.94;4944838;29;20160;-87
2022/08/31 07:27:17;;;;;;;6.30;2.10;;;17.40;99.90;;;-144.05;56.52;125687.94;4927404;29;20496;-87
2022/08/31 07:29:44;;;;;;;4.00;2.33;;;17.50;99.90;;;-144.05;56.45;125687.94;4944324;29;20108;-87
2022/08/31 07:32:14;;;;;;;4.15;2.40;;;17.50;99.90;;;-144.05;56.15;125687.94;4945183;29;20031;-88
2022/08/31 07:34:42;;;;;;;4.90;2.08;;;17.70;99.90;;;-144.05;55.64;125687.94;4944508;29;20039;-88
2022/08/31 07:42:43;;;;;;;7.30;2.30;;;18.00;99.90;;;-144.05;55.29;125687.94;4928143;29;20039;-89
2022/08/31 07:45:22;;;;;;;4.40;2.22;;;18.00;99.90;;;-144.05;54.95;125687.94;4926969;29;20074;-87
2022/08/31 07:47:54;;;;;;;6.40;1.98;;;18.20;99.90;;;-144.05;54.27;125687.94;4943430;29;20099;-91
2022/08/31 07:50:22;;;;;;;4.95;2.22;;;18.40;99.90;;;-144.05;54.27;125687.94;4926523;29;20104;-87
2022/08/31 07:52:54;;;;;;;4.63;2.50;;;18.40;99.90;;;-144.05;53.90;125687.94;4943908;29;20028;-87
2022/08/31 07:55:24;;;;;;;3.45;1.88;;;18.60;99.90;;;-144.05;53.26;125687.94;4949161;29;20024;-89
2022/08/31 07:57:53;;;;;;;4.47;2.17;;;18.70;99.90;;;-144.05;53.22;125687.94;4950222;29;20063;-86
2022/08/31 08:00:28;;;;;;;6.22;2.30;;;18.80;99.90;;;-144.05;53.01;125687.94;4948726;29;20473;-88
2022/08/31 08:03:05;;;;;;;4.10;1.93;;;18.90;99.90;;;-144.05;52.80;125687.94;4930410;29;20118;-88
2022/08/31 08:05:37;;;;;;;4.30;2.10;;;19.00;99.90;;;-144.05;52.41;125687.94;4928796;29;20032;-88
2022/08/31 08:08:07;;;;;;;3.88;1.98;;;19.20;99.90;;;-144.05;52.12;125687.94;4942914;29;20035;-87
2022/08/31 08:10:37;;;;;;;8.05;2.17;;;19.40;99.90;;;-144.05;51.01;125687.94;4944445;29;20036;-88
2022/08/31 08:13:03;;;;;;;4.43;1.95;;;19.60;99.90;;;-144.05;50.27;125687.94;4928062;29;20126;-91
2022/08/31 08:15:33;;;;;;;5.63;2.28;;;19.90;99.90;;;-144.05;50.14;125687.94;4942440;29;20028;-87
2022/08/31 08:17:59;;;;;;;3.20;2.00;;;20.00;99.90;;;-144.05;50.24;125687.94;4924555;29;20035;-90
2022/08/31 08:20:26;;;;;;;2.90;2.30;;;19.90;99.90;;;-144.05;50.86;125687.94;4924660;29;20043;-88
2022/08/31 08:22:52;;;;;;;6.45;2.88;;;19.90;99.90;;;-144.05;50.45;125687.94;4923161;29;20099;-87
2022/08/31 08:25:18;;;;;;;4.82;1.98;;;20.10;99.90;;;-144.05;49.23;125687.94;4925063;29;20096;-90
2022/08/31 08:27:46;;;;;;;5.32;2.25;;;20.60;99.90;;;-144.05;47.86;125687.94;4938825;29;20028;-89
2022/08/31 08:30:13;;;;;;;3.03;1.85;;;20.70;99.90;;;-144.05;48.64;125687.94;4922882;29;20036;-88
2022/08/31 08:32:41;;;;;;;5.55;2.03;;;20.60;99.90;;;-144.05;49.06;125687.94;4923234;29;20028;-89
2022/08/31 08:35:12;;;;;;;4.38;2.42;;;20.60;99.90;;;-144.05;48.78;125687.94;4923358;29;20039;-87
2022/08/31 08:37:47;;;;;;;4.05;2.17;;;20.70;99.90;;;-144.05;48.58;125687.94;4925743;29;20028;-88
2022/08/31 08:40:41;;;;;;;5.57;2.55;;;20.80;99.90;;;-144.05;47.51;125687.94;4926627;29;20032;-87
2022/08/31 08:43:19;;;;;;;3.50;1.90;;;20.90;99.90;;;-144.05;48.34;125687.94;4923073;29;20055;-88
2022/08/31 08:45:52;;;;;;;3.47;2.08;;;20.80;99.90;;;-144.05;48.12;125687.94;4941094;29;20141;-88
2022/08/31 08:48:27;;;;;;;4.68;2.55;;;20.70;99.90;;;-144.05;48.41;125687.94;4923952;29;20091;-90
2022/08/31 08:50:53;;;;;;;5.80;2.67;;;20.60;99.90;;;-144.05;49.09;125687.94;4923427;29;20400;-88
2022/08/31 08:53:27;;;;;;;3.50;2.25;;;20.50;99.90;;;-144.05;47.80;125687.94;4925823;29;20500;-89
2022/08/31 08:55:53;;;;;;;6.10;2.60;;;20.90;99.90;;;-144.05;47.22;125687.94;4923409;29;20035;-89
2022/08/31 08:58:27;;;;;;;6.50;2.70;;;21.20;99.90;;;-144.05;46.78;125687.94;4924223;29;20062;-87
2022/08/31 09:00:56;;;;;;;4.00;2.55;;;21.30;99.90;;;-144.05;47.26;125687.94;4939321;29;20032;-86
2022/08/31 09:04:29;;;;;;;3.15;2.65;;;21.40;99.90;;;-144.05;46.42;125687.94;4925152;29;20107;-86
2022/08/31 09:07:35;;;;;;;4.13;2.33;;;21.60;99.90;;;-144.05;45.32;125687.94;4943128;29;20108;-90
2022/08/31 09:10:35;;;;;;;4.63;2.22;;;22.00;99.90;;;-144.05;44.83;125687.94;4926403;29;20563;-85
2022/08/31 09:13:29;;;;;;;3.17;2.25;;;22.40;99.90;;;-144.05;44.81;125687.94;4935820;29;20038;-89
2022/08/31 09:16:20;;;;;;;4.40;2.72;;;22.50;99.90;;;-144.05;43.79;125687.94;4939117;29;20492;-88
2022/08/31 09:18:53;;;;;;;4.18;2.55;;;22.80;99.90;;;-144.05;43.63;125687.94;4938560;29;20028;-87
2022/08/31 09:21:27;;;;;;;5.80;2.60;;;22.90;99.90;;;-144.05;43.60;125687.94;4937199;29;20413;-89
2022/08/31 09:24:09;;;;;;;4.15;2.83;;;23.00;99.90;;;-144.05;43.12;125687.94;4922773;29;20088;-89
2022/08/31 09:27:17;;;;;;;5.85;2.85;;;23.20;99.90;;;-144.05;42.09;125687.94;4938693;29;20524;-90
2022/08/31 09:29:58;;;;;;;10.73;2.72;;;23.80;99.90;;;-144.05;41.43;125687.94;4937741;29;20073;-89
2022/08/31 09:32:30;;;;;;;5.40;2.60;;;24.00;99.90;;;-144.05;40.39;125687.94;4952903;29;20184;-89
2022/08/31 09:35:40;;;;;;;4.85;2.97;;;24.30;99.90;;;-144.05;40.00;125687.94;4953442;29;20043;-88
2022/08/31 09:38:39;;;;;;;4.60;2.88;;;24.50;99.90;;;-144.05;40.51;125687.94;4952851;29;20028;-87
2022/08/31 09:41:27;;;;;;;5.90;2.55;;;24.40;99.90;;;-144.05;40.45;125687.94;4945854;29;20379;-89
2022/08/31 09:44:22;;;;;;;4.53;2.70;;;24.00;99.90;;;-144.05;41.15;125687.94;4920481;29;20055;-89
2022/08/31 09:46:55;;;;;;;3.13;2.30;;;24.00;99.90;;;-144.05;40.43;125687.94;4918537;29;20063;-87
2022/08/31 09:49:54;;;;;;;4.90;2.55;;;24.10;99.90;;;-144.05;40.75;125687.94;4938603;29;20028;-87
2022/08/31 09:55:27;;;;;;;5.13;3.08;;;24.30;99.90;;;-144.05;40.29;125687.94;4924126;29;20536;-87
2022/08/31 09:58:09;;;;;;;3.60;2.75;;;24.50;99.90;;;-144.05;40.96;125687.94;4938926;29;20036;-88
2022/08/31 10:00:46;;;;;;;4.85;2.30;;;24.20;99.90;;;-144.05;40.76;125687.94;4939326;29;20094;-88
2022/08/31 10:03:27;;;;;;;6.10;3.25;;;24.00;99.90;;;-144.05;40.54;125687.94;4938853;29;20036;-88
2022/08/31 10:05:54;;;;;;;3.80;2.45;;;24.20;99.90;;;-144.05;40.98;125687.94;4923650;29;20079;-89
2022/08/31 10:08:52;;;;;;;3.58;2.72;;;24.10;99.90;;;-144.05;40.74;125687.94;4922360;29;20173;-89
2022/08/31 10:11:21;;;;;;;5.90;2.95;;;24.10;99.90;;;-144.05;40.22;125687.94;4938074;29;20043;-87
2022/08/31 10:13:59;;;;;;;5.57;3.47;;;24.40;99.90;;;-144.05;40.01;125687.94;4938118;29;20377;-89
2022/08/31 10:16:48;;;;;;;5.85;2.58;;;24.50;99.90;;;-144.05;39.81;125687.94;4922254;29;20031;-90
2022/08/31 10:19:54;;;;;;;4.13;2.60;;;24.60;99.90;;;-144.05;39.51;125687.94;4922244;29;20024;-89
2022/08/31 10:22:41;;;;;;;3.65;2.90;;;24.60;99.90;;;-144.05;39.60;125687.94;4922113;29;20152;-89
2022/08/31 10:25:30;;;;;;;3.55;2.45;;;24.70;99.90;;;-144.05;39.78;125687.94;4921021;29;20028;-87
2022/08/31 10:28:16;;;;;;;4.65;2.72;;;24.80;99.90;;;-144.05;39.98;125687.94;4921531;29;20107;-87
2022/08/31 10:30:50;;;;;;;4.53;2.80;;;24.60;99.90;;;-144.05;39.17;125687.94;4920758;29;20067;-86
2022/08/31 10:35:02;;;;;;;4.32;3.03;;;24.70;99.90;;;-144.05;39.82;125687.94;4920687;29;20508;-88
2022/08/31 10:36:25;;;;;;;4.80;2.67;;;24.90;99.90;;;-144.05;39.60;125687.94;4921780;29;20028;-88